»·PEaware :: N790DL KSEZ-KRNM

N790DL :: KSEZ-KRNM

FLIGHT INFORMATION

Flight Status: Arrived
Operator: Privately registered:
United States
More flights under this callsign
Pilot: Keith B. (30325)
Aircraft: BEECH AIRCRAFT DEBONAIR BONANZA
(BE33)
More flights by this aircraft type
Origin: KSEZ Sedona
United States
Destination: KRNM Ramona
United States
More flights between these airports :: More routes between these airports
Route: KSEZ DRK EED TNP JLI KRNM
File this flight plan on PilotEdge
Remarks:
Altitude:
(Current/Filed)
11,000ft
Speed:
(Current/Filed)
150kts
Departed: 07-Nov-20 09:23 AM
Arrived: 07-Nov-20 11:35 AM
Distance/Time
Traveled:
277nm/2:12
Distance/Time
To Go:
Arrived

Flight Plot

Page will automatically refresh every two minutes.

Flight plan parsing failed; only flown route is shown


Map Options




Map Legend


Flown Route
Filed Route
Departure Airport
Arrival Airport
Navaid (VOR, NDB)
Fix

Horizontal Profiles

Position Reports

Time Latitude Longitude Heading Altitude Ground
Speed
07-Nov-20 09:12 34.849205 -111.790957 226 4756ft 0kts
07-Nov-20 09:13 34.849205 -111.790957 226 4756ft 0kts
07-Nov-20 09:14 34.849205 -111.790957 226 4756ft 0kts
07-Nov-20 09:15 34.849205 -111.790957 226 4756ft 0kts
07-Nov-20 09:16 34.849205 -111.790958 226 4756ft 0kts
07-Nov-20 09:17 34.848759 -111.790732 139 4754ft 4kts
07-Nov-20 09:18 34.849292 -111.788739 45 4763ft 10kts
07-Nov-20 09:19 34.851644 -111.785792 44 4778ft 11kts
07-Nov-20 09:20 34.853639 -111.783222 71 4777ft 7kts
07-Nov-20 09:21 34.853673 -111.782903 134 4777ft 0kts
07-Nov-20 09:22 34.853668 -111.782896 133 4777ft 2kts
07-Nov-20 09:23 34.844542 -111.794754 228 5172ft 66kts
07-Nov-20 09:24 34.839940 -111.825819 250 5647ft 103kts
07-Nov-20 09:25 34.833499 -111.860218 246 6231ft 107kts
07-Nov-20 09:26 34.826219 -111.895684 244 6814ft 109kts
07-Nov-20 09:27 34.819261 -111.929030 245 7339ft 112kts
07-Nov-20 09:28 34.811542 -111.965840 245 7889ft 113kts
07-Nov-20 09:29 34.803729 -112.003062 243 8444ft 112kts
07-Nov-20 09:29 34.796657 -112.033271 244 8887ft 111kts
07-Nov-20 09:31 34.787583 -112.075721 243 9484ft 112kts
07-Nov-20 09:32 34.778870 -112.117076 245 9507ft 137kts
07-Nov-20 09:32 34.770791 -112.155523 246 9492ft 144kts
07-Nov-20 09:34 34.759000 -112.211434 245 9487ft 147kts
07-Nov-20 09:34 34.750455 -112.251704 245 9486ft 148kts
07-Nov-20 09:35 34.740147 -112.300443 246 9482ft 148kts
07-Nov-20 09:36 34.729825 -112.348918 246 9476ft 148kts
07-Nov-20 09:37 34.719224 -112.398328 246 9473ft 152kts
07-Nov-20 09:38 34.708571 -112.448357 247 9472ft 153kts
07-Nov-20 09:39 34.701410 -112.499704 265 9467ft 162kts
07-Nov-20 09:40 34.704737 -112.554301 263 9460ft 160kts
07-Nov-20 09:41 34.706800 -112.608291 264 9453ft 159kts
07-Nov-20 09:42 34.708891 -112.661746 262 9497ft 155kts
07-Nov-20 09:43 34.710983 -112.714381 262 9514ft 157kts
07-Nov-20 09:44 34.712902 -112.767273 261 9509ft 158kts
07-Nov-20 09:45 34.714895 -112.821874 262 9506ft 160kts
07-Nov-20 09:46 34.716908 -112.876014 261 9496ft 160kts
07-Nov-20 09:47 34.718978 -112.930414 262 9468ft 161kts
07-Nov-20 09:48 34.720962 -112.984770 263 9454ft 160kts
07-Nov-20 09:49 34.722800 -113.038888 263 9437ft 163kts
07-Nov-20 09:50 34.724751 -113.094515 262 9435ft 163kts
07-Nov-20 09:51 34.726735 -113.150057 264 9427ft 166kts
07-Nov-20 09:52 34.728636 -113.205897 264 9441ft 165kts
07-Nov-20 09:53 34.730539 -113.261820 264 9417ft 164kts
07-Nov-20 09:54 34.732541 -113.316721 262 9418ft 160kts
07-Nov-20 09:55 34.734322 -113.371802 263 9405ft 164kts
07-Nov-20 09:56 34.736020 -113.426910 262 9422ft 163kts
07-Nov-20 09:57 34.737933 -113.482313 264 9416ft 162kts
07-Nov-20 09:58 34.739472 -113.537611 264 9401ft 163kts
07-Nov-20 09:59 34.740601 -113.593084 263 9429ft 162kts
07-Nov-20 10:00 34.742914 -113.648270 263 9386ft 161kts
07-Nov-20 10:01 34.744951 -113.702313 263 9421ft 161kts
07-Nov-20 10:02 34.746474 -113.756799 264 9421ft 161kts
07-Nov-20 10:03 34.748058 -113.810555 263 9412ft 161kts
07-Nov-20 10:04 34.749421 -113.864895 262 9425ft 159kts
07-Nov-20 10:05 34.750993 -113.918966 262 9439ft 159kts
07-Nov-20 10:06 34.752708 -113.973226 262 9408ft 160kts
07-Nov-20 10:07 34.753957 -114.027095 263 9404ft 156kts
07-Nov-20 10:08 34.755350 -114.079134 263 9407ft 152kts
07-Nov-20 10:09 34.756755 -114.130313 263 9399ft 151kts
07-Nov-20 10:10 34.758099 -114.181130 263 9398ft 149kts
07-Nov-20 10:11 34.759397 -114.231849 263 9394ft 149kts
07-Nov-20 10:12 34.760719 -114.282021 263 9393ft 148kts
07-Nov-20 10:13 34.761967 -114.332319 263 9382ft 148kts
07-Nov-20 10:14 34.763180 -114.381501 263 9377ft 148kts
07-Nov-20 10:15 34.764411 -114.432235 263 9369ft 149kts
07-Nov-20 10:16 34.763378 -114.482418 242 9367ft 143kts
07-Nov-20 10:17 34.741879 -114.523028 236 9382ft 145kts
07-Nov-20 10:18 34.720727 -114.565369 237 9377ft 147kts
07-Nov-20 10:19 34.699566 -114.607985 236 9377ft 147kts
07-Nov-20 10:20 34.689734 -114.627791 236 9376ft 147kts
07-Nov-20 10:21 34.657844 -114.691744 236 9421ft 147kts
07-Nov-20 10:22 34.636639 -114.734387 236 9422ft 147kts
07-Nov-20 10:23 34.615612 -114.776504 236 9415ft 147kts
07-Nov-20 10:24 34.593960 -114.819885 236 9414ft 148kts
07-Nov-20 10:25 34.572552 -114.862612 236 9408ft 148kts
07-Nov-20 10:26 34.551048 -114.905444 236 9404ft 148kts
07-Nov-20 10:27 34.529604 -114.948286 236 9399ft 148kts
07-Nov-20 10:28 34.508177 -114.990963 236 9396ft 148kts
07-Nov-20 10:29 34.486769 -115.033496 236 9394ft 148kts
07-Nov-20 10:30 34.465286 -115.076035 236 9393ft 148kts
07-Nov-20 10:31 34.443987 -115.118312 237 9389ft 148kts
07-Nov-20 10:32 34.422403 -115.161163 236 9389ft 147kts
07-Nov-20 10:33 34.400974 -115.203591 237 9384ft 147kts
07-Nov-20 10:34 34.379558 -115.245890 237 9388ft 147kts
07-Nov-20 10:35 34.358259 -115.287936 237 9401ft 146kts
07-Nov-20 10:36 34.337510 -115.328871 236 9545ft 139kts
07-Nov-20 10:37 34.317761 -115.367736 237 9694ft 134kts
07-Nov-20 10:38 34.298217 -115.406077 236 9841ft 131kts
07-Nov-20 10:39 34.278618 -115.443092 235 9971ft 130kts
07-Nov-20 10:40 34.258508 -115.479382 234 10093ft 129kts
07-Nov-20 10:41 34.237977 -115.515058 234 10197ft 129kts
07-Nov-20 10:42 34.216906 -115.550359 233 10293ft 129kts
07-Nov-20 10:43 34.201189 -115.589275 247 10369ft 132kts
07-Nov-20 10:44 34.184108 -115.628200 237 10432ft 131kts
07-Nov-20 10:45 34.165011 -115.665651 236 10585ft 127kts
07-Nov-20 10:46 34.147090 -115.700609 236 10881ft 119kts
07-Nov-20 10:47 34.129223 -115.735426 237 10945ft 127kts
07-Nov-20 10:48 34.109508 -115.772256 227 10966ft 132kts
07-Nov-20 10:49 34.078324 -115.798055 218 10959ft 137kts
07-Nov-20 10:50 34.046943 -115.824581 218 10947ft 138kts
07-Nov-20 10:51 34.015386 -115.851381 218 10941ft 138kts
07-Nov-20 10:52 33.983860 -115.878143 219 10930ft 139kts
07-Nov-20 10:53 33.952220 -115.904981 218 10929ft 138kts
07-Nov-20 10:54 33.920419 -115.931492 218 10913ft 139kts
07-Nov-20 10:55 33.889010 -115.958046 219 10960ft 137kts
07-Nov-20 10:56 33.857660 -115.984582 218 10968ft 139kts
07-Nov-20 10:57 33.825901 -116.011400 218 10963ft 140kts
07-Nov-20 10:58 33.793945 -116.038375 218 10961ft 140kts
07-Nov-20 10:59 33.762050 -116.065292 219 10958ft 140kts
07-Nov-20 11:00 33.730086 -116.092236 219 10953ft 140kts
07-Nov-20 11:01 33.698333 -116.118950 219 10994ft 137kts
07-Nov-20 11:02 33.666939 -116.145356 219 11002ft 137kts
07-Nov-20 11:03 33.635770 -116.171549 219 10998ft 135kts
07-Nov-20 11:04 33.604223 -116.198029 219 10925ft 139kts
07-Nov-20 11:05 33.573638 -116.223680 219 10921ft 139kts
07-Nov-20 11:06 33.541937 -116.250253 219 10918ft 138kts
07-Nov-20 11:07 33.510360 -116.276697 219 10914ft 138kts
07-Nov-20 11:09 33.478781 -116.303112 219 10915ft 138kts
07-Nov-20 11:10 33.447315 -116.329947 219 10732ft 148kts
07-Nov-20 11:11 33.414841 -116.357005 219 10854ft 135kts
07-Nov-20 11:12 33.383870 -116.382884 219 10859ft 136kts
07-Nov-20 11:13 33.352745 -116.408822 219 10855ft 136kts
07-Nov-20 11:14 33.320882 -116.435384 219 10654ft 146kts
07-Nov-20 11:15 33.286526 -116.463981 219 10283ft 151kts
07-Nov-20 11:16 33.253436 -116.491437 219 9860ft 139kts
07-Nov-20 11:17 33.222131 -116.517439 220 9449ft 135kts
07-Nov-20 11:18 33.190957 -116.543311 220 8933ft 142kts
07-Nov-20 11:19 33.156390 -116.572032 219 8033ft 160kts
07-Nov-20 11:20 33.129695 -116.612994 256 7063ft 161kts
07-Nov-20 11:21 33.116608 -116.662026 249 5917ft 148kts
07-Nov-20 11:22 33.101362 -116.701452 217 5476ft 107kts
07-Nov-20 11:23 33.073796 -116.713761 206 5400ft 119kts
07-Nov-20 11:24 33.039343 -116.728974 206 5126ft 140kts
07-Nov-20 11:25 33.001666 -116.745924 206 4807ft 148kts
07-Nov-20 11:25 32.970761 -116.751554 157 4785ft 173kts
07-Nov-20 11:27 32.968615 -116.687230 20 4581ft 188kts
07-Nov-20 11:27 33.008346 -116.691566 335 4578ft 175kts
07-Nov-20 11:29 33.029045 -116.740589 265 4495ft 134kts
07-Nov-20 11:29 33.031213 -116.778845 273 3762ft 142kts
07-Nov-20 11:31 33.033987 -116.822408 268 3049ft 82kts
07-Nov-20 11:31 33.032918 -116.843999 264 2705ft 72kts
07-Nov-20 11:32 33.032708 -116.870010 273 2286ft 79kts
07-Nov-20 11:33 33.036159 -116.894832 280 1680ft 73kts
07-Nov-20 11:34 33.039136 -116.914790 295 1391ft 17kts
07-Nov-20 11:35 33.039610 -116.915006 9 1391ft 0kts
07-Nov-20 11:36 33.040288 -116.913487 13 1395ft 6kts
07-Nov-20 11:37 33.040515 -116.913679 281 1394ft 0kts
07-Nov-20 11:38 33.040515 -116.913679 281 1394ft 0kts
07-Nov-20 11:39 33.040515 -116.913679 281 1394ft 0kts
07-Nov-20 11:40 33.040515 -116.913679 281 1394ft 0kts
07-Nov-20 11:41 33.040515 -116.913679 281 1394ft 0kts
07-Nov-20 11:42 33.040515 -116.913679 281 1394ft 0kts
07-Nov-20 11:43 33.040515 -116.913679 281 1394ft 0kts

Navigation Log

Ident Type
Flight plan parsing failed, navigation log unavailable